Time;durP1;ratioP1;P1;durP2;ratioP2;P2;SDS_P1;SDS_P2;PMS_P1;PMS_P2;Temp;Humidity;BMP_temperature;BMP_pressure;BME280_temperature;BME280_humidity;BME280_pressure;Samples;Min_cycle;Max_cycle;Signal;HPM_P1;HPM_P2
2022/08/11 00:00:00;;;;;;;8.07;2.40;;;;;;;19.66;62.07;102285.13;4980478;28;20555;-70
2022/08/11 00:02:41;;;;;;;8.60;2.45;;;;;;;19.54;62.85;102281.06;4989460;28;20023;-70
2022/08/11 00:05:13;;;;;;;12.15;3.40;;;;;;;19.54;62.62;102275.56;4976980;28;20022;-70
2022/08/11 00:07:58;;;;;;;8.77;4.10;;;;;;;19.48;63.28;102276.31;5005224;28;20041;-69
2022/08/11 00:10:27;;;;;;;7.55;3.33;;;;;;;19.42;63.28;102277.03;4978834;28;20061;-70
2022/08/11 00:12:56;;;;;;;5.82;3.42;;;;;;;19.36;63.63;102277.75;4981449;28;20033;-70
2022/08/11 00:15:23;;;;;;;9.30;3.65;;;;;;;19.31;63.41;102281.06;4979346;28;20023;-70
2022/08/11 00:17:55;;;;;;;10.80;3.15;;;;;;;19.14;63.90;102279.44;4985314;28;20026;-70
2022/08/11 00:20:27;;;;;;;9.27;2.90;;;;;;;19.24;64.09;102283.69;4976909;28;20023;-71
2022/08/11 00:23:01;;;;;;;6.72;2.70;;;;;;;19.22;63.96;102288.50;4978382;28;20045;-70
2022/08/11 00:25:27;;;;;;;5.40;2.67;;;;;;;19.25;63.89;102281.81;4991829;28;20023;-70
2022/08/11 00:27:52;;;;;;;9.15;2.53;;;;;;;19.29;63.53;102279.53;4981778;28;20023;-70
2022/08/11 00:30:17;;;;;;;6.72;2.65;;;;;;;19.21;63.84;102278.53;4983068;28;20046;-70
2022/08/11 00:32:53;;;;;;;4.53;2.25;;;;;;;19.16;64.18;102272.72;4986772;28;20027;-70
2022/08/11 00:35:25;;;;;;;6.32;3.35;;;;;;;19.08;64.89;102280.19;4981833;28;20078;-70
2022/08/11 00:37:52;;;;;;;;;;;;;;;19.09;64.46;102282.72;4974388;28;20026;-70
2022/08/11 00:40:28;;;;;;;9.27;3.10;;;;;;;19.04;64.26;102287.03;4991009;28;19910;-70
2022/08/11 00:43:07;;;;;;;9.07;3.13;;;;;;;18.97;64.87;102278.69;4976316;28;20031;-70
2022/08/11 00:45:42;;;;;;;8.95;3.42;;;;;;;18.90;65.45;102280.44;4981099;28;20024;-70
2022/08/11 00:48:26;;;;;;;8.20;2.85;;;;;;;18.84;65.58;102278.41;4975153;28;20047;-70
2022/08/11 00:51:25;;;;;;;7.10;2.65;;;;;;;18.81;65.22;102281.50;4974105;28;20063;-73
2022/08/11 00:54:14;;;;;;;8.10;2.83;;;;;;;18.84;65.26;102279.25;4994746;28;20030;-73
2022/08/11 00:56:48;;;;;;;9.05;2.80;;;;;;;18.73;65.59;102281.56;4979186;28;20134;-73
2022/08/11 00:59:31;;;;;;;8.63;2.58;;;;;;;18.78;65.35;102279.09;4987711;28;20034;-72
2022/08/11 01:02:15;;;;;;;7.00;2.85;;;;;;;18.75;65.38;102279.47;4980758;28;20108;-73
2022/08/11 01:05:02;;;;;;;7.43;3.22;;;;;;;18.73;66.11;102276.06;4989868;28;20018;-73
2022/08/11 01:07:58;;;;;;;7.28;2.60;;;;;;;18.68;65.73;102276.59;4987570;28;20055;-73
2022/08/11 01:10:41;;;;;;;5.80;2.63;;;;;;;18.47;66.31;102290.00;4979662;28;20049;-73
2022/08/11 01:13:32;;;;;;;6.05;3.13;;;;;;;18.50;66.25;102290.50;4977255;28;20026;-73
2022/08/11 01:16:19;;;;;;;9.63;3.35;;;;;;;18.53;66.32;102287.41;4972351;28;20026;-74
2022/08/11 01:19:21;;;;;;;10.00;2.90;;;;;;;18.38;66.96;102278.19;4980839;28;20036;-74
2022/08/11 01:22:14;;;;;;;9.00;3.20;;;;;;;18.29;67.49;102279.25;4972627;28;20117;-74
2022/08/11 01:25:13;;;;;;;6.63;2.88;;;;;;;18.28;67.13;102283.03;5000038;28;20034;-74
2022/08/11 01:27:51;;;;;;;10.50;2.60;;;;;;;18.26;68.02;102279.59;4970934;28;20084;-74
2022/08/11 01:30:36;;;;;;;5.75;3.45;;;;;;;18.22;67.74;102289.19;4980070;28;20027;-74
2022/08/11 01:33:20;;;;;;;12.25;3.30;;;;;;;18.17;68.21;102287.81;4974365;28;20046;-74
2022/08/11 01:36:47;;;;;;;10.77;3.53;;;;;;;18.15;68.05;102289.91;4989419;28;20041;-73
2022/08/11 01:39:32;;;;;;;5.50;3.20;;;;;;;18.13;67.65;102291.13;4990267;28;20022;-74
2022/08/11 01:45:30;;;;;;;13.98;2.78;;;;;;;18.03;68.52;102285.78;4983331;28;20125;-73
2022/08/11 01:48:08;;;;;;;6.13;3.10;;;;;;;18.02;68.21;102284.09;4967791;28;20031;-74
2022/08/11 01:50:58;;;;;;;10.35;3.38;;;;;;;17.97;68.43;102291.97;4996203;28;20084;-74
2022/08/11 01:53:52;;;;;;;6.88;3.25;;;;;;;17.90;69.38;102280.84;4983326;28;20249;-74
2022/08/11 01:56:46;;;;;;;6.55;3.45;;;;;;;17.77;69.54;102285.97;4981155;28;20030;-74
2022/08/11 01:59:30;;;;;;;6.07;3.15;;;;;;;17.67;70.28;102281.66;4981783;28;20508;-74
2022/08/11 02:02:17;;;;;;;7.93;3.58;;;;;;;17.66;70.08;102279.94;4981537;28;20243;-73
2022/08/11 02:04:58;;;;;;;8.50;3.33;;;;;;;17.62;70.43;102288.50;4982228;28;20037;-73
2022/08/11 02:07:35;;;;;;;13.75;3.20;;;;;;;17.60;69.56;102285.09;4987141;28;20094;-74
2022/08/11 02:13:14;;;;;;;5.85;3.38;;;;;;;17.54;69.95;102274.81;4978240;28;20034;-74
2022/08/11 02:15:49;;;;;;;9.18;3.42;;;;;;;17.55;69.92;102276.53;4974331;28;20076;-73
2022/08/11 02:18:21;;;;;;;6.95;3.22;;;;;;;17.54;69.88;102274.81;4979617;28;20076;-74
2022/08/11 02:24:03;;;;;;;6.13;3.53;;;;;;;17.45;70.10;102272.22;4983305;28;20077;-73
2022/08/11 02:26:39;;;;;;;8.82;4.05;;;;;;;17.40;70.21;102272.72;4978635;28;20388;-74
2022/08/11 02:29:14;;;;;;;7.85;3.47;;;;;;;17.35;70.30;102269.66;4997912;28;20022;-74
2022/08/11 02:34:55;;;;;;;8.35;3.35;;;;;;;17.30;71.27;102266.56;4971047;28;20026;-74
2022/08/11 02:37:32;;;;;;;9.02;3.33;;;;;;;17.27;71.58;102277.84;4999457;28;20023;-73
2022/08/11 02:39:57;;;;;;;10.00;4.15;;;;;;;17.24;71.75;102272.72;4978874;28;20069;-74
2022/08/11 02:42:32;;;;;;;16.75;4.28;;;;;;;17.21;71.65;102273.03;5000870;28;20152;-73
2022/08/11 02:45:27;;;;;;;13.60;3.42;;;;;;;17.09;72.08;102269.78;4981834;28;20042;-73
2022/08/11 02:51:33;;;;;;;4.70;3.17;;;;;;;17.11;72.55;102267.72;4973373;28;20028;-74
2022/08/11 02:54:46;;;;;;;7.13;3.40;;;;;;;17.09;72.21;102270.63;4981703;28;20027;-73
2022/08/11 02:57:29;;;;;;;10.75;3.58;;;;;;;17.08;72.09;102273.50;4959461;28;20030;-74
2022/08/11 03:00:08;;;;;;;12.10;4.30;;;;;;;17.08;71.68;102268.03;4975577;28;20030;-73
2022/08/11 03:03:06;;;;;;;7.95;3.88;;;;;;;17.00;72.72;102268.88;4983641;28;20101;-74
2022/08/11 03:05:53;;;;;;;12.02;4.03;;;;;;;16.98;72.56;102273.66;4989512;28;20022;-73
2022/08/11 03:08:38;;;;;;;16.58;3.67;;;;;;;16.91;72.88;102272.63;4973028;28;20033;-74
2022/08/11 03:17:07;;;;;;;8.77;3.47;;;;;;;16.73;73.68;102269.13;4976494;28;20031;-74
2022/08/11 03:19:58;;;;;;;8.73;4.10;;;;;;;16.74;73.26;102265.38;4982911;28;20022;-74
2022/08/11 03:22:33;;;;;;;10.43;3.63;;;;;;;16.69;73.49;102267.69;4973689;28;20066;-74
2022/08/11 03:25:18;;;;;;;10.00;4.00;;;;;;;16.70;73.88;102274.94;4989532;28;20121;-74
2022/08/11 03:28:24;;;;;;;8.95;3.67;;;;;;;16.68;73.40;102272.31;4969165;28;20017;-74
2022/08/11 03:31:01;;;;;;;14.02;3.70;;;;;;;16.71;73.35;102262.97;4975318;28;20130;-74
2022/08/11 03:36:43;;;;;;;9.90;3.40;;;;;;;16.71;73.51;102268.44;4981946;28;20026;-73
2022/08/11 03:39:15;;;;;;;;;;;;;;;16.76;73.32;102268.81;4979363;28;20061;-74
2022/08/11 03:41:51;;;;;;;10.30;3.83;;;;;;;16.78;73.03;102272.22;4994873;28;19917;-74
2022/08/11 03:44:29;;;;;;;11.45;3.70;;;;;;;16.79;73.03;102268.47;4982641;28;20149;-74
2022/08/11 03:47:16;;;;;;;5.70;3.08;;;;;;;16.79;72.67;102268.47;4980077;28;20073;-74
2022/08/11 03:49:56;;;;;;;9.30;3.90;;;;;;;16.84;72.84;102271.56;4988352;28;20030;-74
2022/08/11 03:52:43;;;;;;;8.60;3.92;;;;;;;16.84;72.71;102266.09;4981079;28;20027;-74
2022/08/11 03:55:40;;;;;;;12.30;3.90;;;;;;;16.84;72.71;102263.38;4979485;28;20058;-74
2022/08/11 03:58:21;;;;;;;8.20;3.92;;;;;;;16.75;72.64;102261.59;4977366;28;20034;-74
2022/08/11 04:01:25;;;;;;;12.48;4.15;;;;;;;16.75;72.74;102272.53;4997062;28;20022;-74
2022/08/11 04:04:10;;;;;;;8.27;3.63;;;;;;;16.70;72.81;102274.94;4976567;28;20121;-74
2022/08/11 04:06:58;;;;;;;10.27;4.22;;;;;;;16.72;73.08;102272.88;4997498;28;20082;-74
2022/08/11 04:09:45;;;;;;;7.78;4.63;;;;;;;16.74;73.00;102276.31;4987139;28;20105;-74
2022/08/11 04:12:44;;;;;;;7.90;4.47;;;;;;;16.70;72.96;102274.94;4980029;28;20061;-74
2022/08/11 04:18:29;;;;;;;6.28;3.63;;;;;;;16.71;73.18;102273.91;4978842;28;20054;-74
2022/08/11 04:21:50;;;;;;;8.80;3.55;;;;;;;16.53;73.68;102273.97;4983489;28;20026;-74
2022/08/11 04:24:27;;;;;;;7.65;3.75;;;;;;;16.68;73.75;102271.47;4955468;28;20039;-73
2022/08/11 04:26:56;;;;;;;4.60;3.65;;;;;;;16.76;73.79;102275.13;4998259;28;20022;-73
2022/08/11 04:29:44;;;;;;;11.13;4.10;;;;;;;16.83;73.73;102269.88;4988767;28;20043;-73
2022/08/11 04:32:34;;;;;;;14.07;4.05;;;;;;;16.82;73.08;102257.19;4973564;28;20073;-73
2022/08/11 04:35:21;;;;;;;10.75;4.65;;;;;;;16.86;73.05;102268.66;4987758;28;20392;-73
2022/08/11 04:38:13;;;;;;;9.15;3.63;;;;;;;16.87;72.75;102260.28;4977644;28;20031;-73
2022/08/11 04:41:16;;;;;;;18.33;4.50;;;;;;;16.92;73.33;102266.13;4979275;28;20031;-74
2022/08/11 04:43:56;;;;;;;8.60;4.25;;;;;;;16.95;73.45;102268.53;4998754;28;20035;-73
2022/08/11 04:47:04;;;;;;;7.03;3.95;;;;;;;17.00;73.58;102266.13;4981366;28;20034;-73
2022/08/11 05:02:16;;;;;;;9.13;4.28;;;;;;;17.17;73.26;102263.47;4979018;28;20046;-73
2022/08/11 05:08:20;;;;;;;12.55;4.15;;;;;;;17.30;72.42;102261.09;4988670;28;20019;-73
2022/08/11 05:11:27;;;;;;;14.10;6.25;;;;;;;17.44;71.75;102267.78;4980410;28;20023;-73
2022/08/11 05:37:11;;;;;;;8.50;4.70;;;;;;;18.50;69.47;102265.81;4972595;28;20043;-73
2022/08/11 05:56:58;;;;;;;16.35;3.80;;;;;;;19.13;67.21;102273.13;4976859;28;20022;-71
2022/08/11 05:59:27;;;;;;;8.80;3.10;;;;;;;19.25;67.36;102277.16;4981340;28;21147;-71
2022/08/11 06:01:58;;;;;;;10.40;3.35;;;;;;;19.36;66.85;102277.75;4984374;28;20070;-71
2022/08/11 06:04:24;;;;;;;9.48;3.50;;;;;;;19.47;66.21;102275.44;4990404;28;20058;-71
2022/08/11 06:06:59;;;;;;;15.93;4.47;;;;;;;19.41;66.41;102287.16;4986649;28;20045;-71
2022/08/11 06:09:46;;;;;;;13.63;3.38;;;;;;;19.69;65.13;102279.28;4985941;28;20425;-71
2022/08/11 06:12:28;;;;;;;7.05;3.55;;;;;;;20.03;64.35;102275.22;4979960;28;20014;-70
2022/08/11 06:14:55;;;;;;;10.38;3.45;;;;;;;20.02;64.09;102284.50;4985185;28;20038;-70
2022/08/11 06:17:27;;;;;;;10.10;3.25;;;;;;;20.09;63.65;102279.97;4980081;28;20057;-70
2022/08/11 06:20:04;;;;;;;5.70;3.55;;;;;;;20.20;63.25;102271.22;4980725;28;20030;-71
2022/08/11 06:22:31;;;;;;;9.45;3.40;;;;;;;20.38;62.67;102270.03;4980571;28;20077;-69
2022/08/11 06:24:59;;;;;;;10.82;2.75;;;;;;;20.52;62.24;102274.72;4987206;28;20030;-71
2022/08/11 06:27:28;;;;;;;13.98;3.92;;;;;;;20.65;60.62;102277.66;4997730;28;20469;-71
2022/08/11 06:29:55;;;;;;;11.10;3.33;;;;;;;20.71;61.39;102271.38;4979229;28;20027;-72
2022/08/11 06:32:24;;;;;;;9.43;3.40;;;;;;;20.67;61.24;102277.44;4980333;28;20033;-70
2022/08/11 06:34:58;;;;;;;10.20;2.80;;;;;;;20.94;59.46;102275.94;4973155;28;20022;-70
2022/08/11 06:37:48;;;;;;;3.35;2.63;;;;;;;20.85;59.65;102272.41;4983841;28;20478;-72
2022/08/11 06:40:22;;;;;;;11.05;2.50;;;;;;;20.69;58.86;102276.22;4990808;28;20030;-71
2022/08/11 06:43:05;;;;;;;9.40;2.83;;;;;;;20.74;59.23;102271.00;4991771;28;20030;-71
2022/08/11 06:45:48;;;;;;;9.68;2.88;;;;;;;20.97;58.25;102279.13;4969960;28;20034;-70
2022/08/11 06:48:20;;;;;;;8.60;3.38;;;;;;;21.07;58.37;102270.56;4979124;28;20030;-71
2022/08/11 06:53:48;;;;;;;7.20;3.00;;;;;;;21.44;57.43;102268.66;4968776;28;20027;-70
2022/08/11 07:02:20;;;;;;;8.48;3.22;;;;;;;21.72;56.88;102277.88;4976347;28;20026;-71
2022/08/11 07:05:09;;;;;;;10.32;2.95;;;;;;;21.65;55.99;102269.53;4967946;28;20065;-67
2022/08/11 07:17:14;;;;;;;9.10;2.72;;;;;;;22.26;53.17;102273.66;4979156;28;20113;-70
2022/08/11 07:31:07;;;;;;;11.20;2.38;;;;;;;22.86;52.82;102270.22;4984110;28;20026;-69
2022/08/11 07:33:48;;;;;;;8.65;2.35;;;;;;;22.89;52.88;102269.81;4969516;28;20041;-67
2022/08/11 07:36:16;;;;;;;14.35;2.83;;;;;;;23.13;52.69;102270.31;4983740;28;20023;-68
2022/08/11 07:38:49;;;;;;;5.88;2.72;;;;;;;23.48;51.36;102280.22;4987432;28;20080;-69
2022/08/11 07:41:18;;;;;;;11.25;2.63;;;;;;;23.72;50.39;102269.63;4984126;28;20054;-70
2022/08/11 07:43:48;;;;;;;3.92;2.45;;;;;;;23.66;49.94;102265.78;4981829;28;20062;-67
2022/08/11 07:54:28;;;;;;;7.00;2.33;;;;;;;24.57;45.54;102265.09;4973628;28;20252;-69
2022/08/11 07:56:55;;;;;;;6.07;2.17;;;;;;;24.70;46.41;102275.28;4970870;28;20050;-67
2022/08/11 08:18:39;;;;;;;23.17;2.47;;;;;;;25.90;43.94;102270.81;4968721;28;20494;-69
2022/08/11 08:21:11;;;;;;;10.43;2.22;;;;;;;26.12;43.31;102271.25;4968278;28;20371;-69
2022/08/11 08:23:38;;;;;;;5.95;2.30;;;;;;;26.32;43.08;102276.63;4977392;28;20065;-69
2022/08/11 08:26:57;;;;;;;9.18;1.98;;;;;;;26.51;43.00;102270.03;4975289;28;20037;-69
2022/08/11 08:30:46;;;;;;;15.73;3.03;;;;;;;26.14;43.04;102269.94;4968821;28;20026;-69
2022/08/11 08:31:43;;;;;;;9.80;2.53;;;;;;;26.36;42.78;102272.31;4974782;28;20033;-67
2022/08/11 08:34:09;;;;;;;8.13;2.28;;;;;;;26.63;42.39;102273.75;4975004;28;20023;-68
2022/08/11 08:36:36;;;;;;;12.10;2.40;;;;;;;26.54;42.19;102269.59;4968813;28;20022;-69
2022/08/11 08:39:01;;;;;;;11.32;2.75;;;;;;;26.45;42.65;102276.50;4984708;28;20030;-66
2022/08/11 08:41:31;;;;;;;10.10;2.90;;;;;;;26.77;42.03;102269.72;4986250;28;20032;-68
2022/08/11 08:44:01;;;;;;;9.95;2.55;;;;;;;26.86;41.49;102278.59;4985603;28;20041;-69
2022/08/11 08:46:35;;;;;;;8.50;2.33;;;;;;;26.90;41.44;102270.63;4968995;28;20031;-67
2022/08/11 08:49:03;;;;;;;8.13;2.30;;;;;;;27.13;40.40;102262.47;4993308;28;20045;-67
2022/08/11 08:51:37;;;;;;;8.52;2.50;;;;;;;27.05;40.52;102262.75;4984780;28;20027;-69
2022/08/11 08:54:36;;;;;;;6.53;2.38;;;;;;;27.47;40.09;102260.03;4975351;28;20026;-69
2022/08/11 08:57:05;;;;;;;20.17;2.90;;;;;;;27.60;40.01;102259.84;4959292;28;20035;-68
2022/08/11 08:59:34;;;;;;;9.77;2.38;;;;;;;27.62;39.48;102260.44;4974470;28;20064;-70
2022/08/11 09:02:02;;;;;;;7.80;2.50;;;;;;;28.00;39.04;102260.03;4972871;28;20079;-69
2022/08/11 09:04:29;;;;;;;11.75;2.47;;;;;;;27.87;39.55;102256.66;4983530;28;20066;-67
2022/08/11 09:06:59;;;;;;;4.72;2.53;;;;;;;27.57;38.18;102257.50;4970322;28;20477;-68
2022/08/11 09:09:26;;;;;;;3.95;2.03;;;;;;;28.03;36.92;102255.91;4972446;28;20117;-68
2022/08/11 09:11:52;;;;;;;10.15;2.25;;;;;;;28.20;36.49;102256.91;4984668;28;20034;-69
2022/08/11 09:17:20;;;;;;;11.85;3.00;;;;;;;27.54;37.44;102246.88;4968713;28;20418;-71
2022/08/11 09:19:47;;;;;;;6.75;2.03;;;;;;;27.89;37.40;102248.88;4983481;28;20025;-71
2022/08/11 09:27:47;;;;;;;12.77;1.92;;;;;;;28.45;35.67;102239.13;4979945;28;20023;-68
2022/08/11 09:30:12;;;;;;;6.55;1.90;;;;;;;28.70;35.45;102234.09;4992345;28;20038;-69
2022/08/11 09:32:39;;;;;;;7.60;2.33;;;;;;;28.43;36.10;102232.91;4966763;28;20038;-69
2022/08/11 09:35:06;;;;;;;4.07;2.00;;;;;;;28.17;35.71;102240.69;4977711;28;20034;-69
2022/08/11 09:40:29;;;;;;;7.78;1.85;;;;;;;28.62;34.93;102232.50;4983615;28;20026;-70
2022/08/11 09:45:51;;;;;;;7.95;1.95;;;;;;;28.73;35.53;102230.81;4967861;28;20034;-67
2022/08/11 09:48:19;;;;;;;4.15;2.45;;;;;;;28.67;34.58;102226.22;4983000;28;20015;-68
2022/08/11 09:50:51;;;;;;;15.60;2.10;;;;;;;28.88;34.97;102231.09;4966232;28;20027;-71
2022/08/11 09:53:19;;;;;;;7.80;1.95;;;;;;;29.12;34.42;102217.09;4965592;28;20039;-70
2022/08/11 09:55:45;;;;;;;5.30;1.90;;;;;;;29.30;34.81;102222.47;4966211;28;20058;-68
2022/08/11 09:58:13;;;;;;;4.10;2.13;;;;;;;29.19;34.67;102215.00;4983446;28;20038;-70
2022/08/11 10:00:39;;;;;;;15.23;2.10;;;;;;;29.47;34.27;102205.72;4986260;28;20027;-67
2022/08/11 10:03:22;;;;;;;8.70;2.22;;;;;;;29.40;34.41;102210.63;4977713;28;20024;-69
2022/08/11 10:08:42;;;;;;;8.13;1.90;;;;;;;29.88;32.38;102201.72;4968601;28;20465;-69
2022/08/11 10:11:11;;;;;;;8.40;1.70;;;;;;;29.72;33.27;102197.81;4966885;28;20038;-67
2022/08/11 10:16:28;;;;;;;12.93;2.25;;;;;;;29.71;33.09;102193.34;4977107;28;20022;-66
2022/08/11 10:18:55;;;;;;;4.40;1.90;;;;;;;29.56;33.14;102186.69;4965546;28;20061;-69
2022/08/11 10:21:28;;;;;;;10.32;1.98;;;;;;;29.81;31.82;102192.69;4965091;28;20053;-70
2022/08/11 10:34:50;;;;;;;7.05;1.90;;;;;;;30.37;32.17;102170.31;4967026;28;20054;-68
2022/08/11 10:37:19;;;;;;;10.45;1.60;;;;;;;30.36;33.05;102169.47;4965142;28;20030;-69
2022/08/11 10:39:45;;;;;;;13.45;2.40;;;;;;;30.12;32.28;102163.25;4977199;28;20030;-69
2022/08/11 10:44:57;;;;;;;9.10;1.90;;;;;;;30.87;31.04;102170.13;4966950;28;20041;-69
2022/08/11 10:47:33;;;;;;;7.60;1.80;;;;;;;30.89;30.48;102162.28;4985822;28;20045;-71
2022/08/11 11:01:04;;;;;;;5.18;1.85;;;;;;;31.84;28.85;102157.03;4966765;28;20023;-69
2022/08/11 11:03:33;;;;;;;6.47;1.83;;;;;;;31.77;28.79;102156.38;4965538;28;20031;-70
2022/08/11 11:06:25;;;;;;;3.88;1.33;;;;;;;32.07;28.99;102151.00;4968926;28;20030;-67
2022/08/11 11:08:57;;;;;;;3.20;1.50;;;;;;;31.31;29.03;102153.22;4974897;28;20084;-69
2022/08/11 11:17:54;;;;;;;6.15;1.73;;;;;;;30.86;28.81;102146.06;4977223;28;20054;-69
2022/08/11 11:19:39;;;;;;;6.20;1.52;;;;;;;32.42;27.96;102146.72;4985625;28;20014;-68
2022/08/11 11:25:20;;;;;;;4.85;1.38;;;;;;;31.80;27.25;102153.06;4974576;28;20055;-69
2022/08/11 11:28:04;;;;;;;12.27;1.90;;;;;;;32.28;27.15;102134.31;4964868;28;20023;-70
2022/08/11 11:31:02;;;;;;;6.63;1.83;;;;;;;31.88;27.49;102141.34;4981297;28;20058;-69
2022/08/11 11:33:59;;;;;;;9.13;2.05;;;;;;;32.13;26.93;102147.09;4964659;28;20093;-69
2022/08/11 11:36:44;;;;;;;3.85;2.22;;;;;;;32.48;27.07;102151.22;4967129;28;20165;-67
2022/08/11 11:39:10;;;;;;;10.93;1.60;;;;;;;32.76;26.54;102140.66;4966049;28;20027;-67
2022/08/11 11:41:36;;;;;;;11.50;1.77;;;;;;;32.89;26.85;102140.16;4997753;28;20046;-69
2022/08/11 11:44:03;;;;;;;7.93;1.70;;;;;;;32.97;25.87;102148.00;4976097;28;20023;-69
2022/08/11 11:46:30;;;;;;;3.28;1.30;;;;;;;32.83;25.71;102153.28;4973591;28;20547;-67
2022/08/11 11:48:59;;;;;;;5.85;1.55;;;;;;;33.52;25.66;102149.22;4983910;28;20385;-68
2022/08/11 11:51:25;;;;;;;3.42;1.63;;;;;;;33.42;25.95;102144.41;4970665;28;20110;-69
2022/08/11 11:53:52;;;;;;;8.43;1.48;;;;;;;33.07;25.47;102147.19;4965466;28;20132;-68
2022/08/11 11:56:20;;;;;;;2.55;1.55;;;;;;;32.57;26.47;102143.97;4981617;28;20058;-70
2022/08/11 12:01:32;;;;;;;12.45;1.60;;;;;;;33.41;24.48;102141.91;4984690;28;20045;-70
2022/08/11 12:03:59;;;;;;;9.93;1.38;;;;;;;33.26;24.78;102133.47;4976559;28;20090;-70
2022/08/11 12:06:26;;;;;;;6.93;1.75;;;;;;;33.21;24.83;102137.94;4965254;28;20367;-67
2022/08/11 12:08:54;;;;;;;2.42;1.60;;;;;;;33.43;24.80;102134.03;4973106;28;20051;-68
2022/08/11 12:14:09;;;;;;;7.43;1.70;;;;;;;33.72;25.34;102132.31;4978707;28;20026;-70
2022/08/11 12:16:37;;;;;;;6.85;1.40;;;;;;;34.54;23.34;102126.44;4964199;28;20031;-70
2022/08/11 12:19:10;;;;;;;6.22;1.55;;;;;;;34.24;23.69;102128.25;4965091;28;20027;-70
2022/08/11 12:21:37;;;;;;;3.35;1.33;;;;;;;33.91;24.04;102123.31;4967516;28;20301;-70
2022/08/11 12:29:15;;;;;;;8.02;1.80;;;;;;;33.97;24.42;102125.84;4968273;28;20149;-69
2022/08/11 12:31:41;;;;;;;6.95;1.48;;;;;;;34.47;23.62;102125.91;4969139;28;20025;-68
2022/08/11 12:34:10;;;;;;;6.20;1.52;;;;;;;33.32;25.18;102110.72;4968121;28;20101;-66
2022/08/11 12:37:00;;;;;;;13.10;1.80;;;;;;;33.54;25.27;102107.63;4965945;28;20030;-68
2022/08/11 12:53:32;;;;;;;4.78;1.40;;;;;;;34.04;22.70;102076.88;4982429;28;20033;-69
2022/08/11 12:58:48;;;;;;;8.23;1.55;;;;;;;34.96;22.19;102088.50;4978936;28;20018;-69
2022/08/11 13:06:44;;;;;;;3.78;1.20;;;;;;;35.37;22.34;102077.72;4988132;28;20070;-70
2022/08/11 13:09:10;;;;;;;8.55;1.50;;;;;;;34.93;22.42;102072.19;4986555;28;20034;-67
2022/08/11 13:14:22;;;;;;;12.40;1.50;;;;;;;35.07;23.32;102061.94;4979251;28;20118;-66
2022/08/11 13:19:33;;;;;;;3.63;1.30;;;;;;;34.82;23.35;102060.13;4979750;28;20058;-67
2022/08/11 13:22:01;;;;;;;2.70;1.60;;;;;;;35.55;22.27;102062.06;4974142;28;20030;-69
2022/08/11 13:24:27;;;;;;;6.30;1.30;;;;;;;35.49;21.98;102061.28;4985610;28;20089;-66
2022/08/11 13:26:53;;;;;;;4.00;1.33;;;;;;;35.64;21.44;102054.63;4969105;28;20015;-68
2022/08/11 13:29:25;;;;;;;1.60;1.25;;;;;;;35.68;21.07;102050.09;4968419;28;20031;-68
2022/08/11 13:31:52;;;;;;;7.13;1.60;;;;;;;34.89;21.67;102054.19;4967509;28;20022;-68
2022/08/11 13:34:19;;;;;;;11.07;1.50;;;;;;;35.80;21.53;102044.00;4978445;28;20034;-69
2022/08/11 13:36:44;;;;;;;3.15;1.40;;;;;;;35.23;22.05;102055.03;4986285;28;20068;-69
2022/08/11 13:39:12;;;;;;;11.02;1.70;;;;;;;35.47;21.88;102048.63;4986241;28;20050;-66
2022/08/11 13:41:40;;;;;;;2.47;1.40;;;;;;;35.63;21.55;102047.31;4986156;28;20019;-70
2022/08/11 13:44:08;;;;;;;3.30;1.58;;;;;;;35.65;20.92;102038.56;4966524;28;20023;-70
2022/08/11 13:46:35;;;;;;;4.25;1.40;;;;;;;35.63;21.34;102036.06;4969558;28;20038;-68
2022/08/11 13:49:01;;;;;;;6.95;1.48;;;;;;;35.09;22.09;102042.78;4981667;28;20042;-67
2022/08/11 13:51:31;;;;;;;6.93;1.65;;;;;;;35.71;21.65;102032.56;4974756;28;20049;-69
2022/08/11 13:54:06;;;;;;;;;;;;;;;36.13;21.08;102033.78;4973173;28;20042;-70
2022/08/11 13:56:34;;;;;;;12.85;1.77;;;;;;;36.21;20.81;102030.25;4977149;28;19917;-70
2022/08/11 13:59:01;;;;;;;11.25;1.65;;;;;;;36.31;21.46;102030.09;4972621;28;20031;-70
2022/08/11 14:01:32;;;;;;;3.78;1.65;;;;;;;36.00;21.18;102023.22;4972186;28;20034;-69
2022/08/11 14:04:04;;;;;;;5.20;1.50;;;;;;;36.00;21.21;102028.88;4970258;28;20061;-70
2022/08/11 14:06:30;;;;;;;6.97;1.45;;;;;;;36.17;21.85;102023.53;4970281;28;20084;-71
2022/08/11 14:08:57;;;;;;;6.97;1.48;;;;;;;36.08;21.75;102019.75;4965955;28;20430;-69
2022/08/11 14:14:11;;;;;;;6.53;2.38;;;;;;;35.96;21.79;102010.88;4975657;28;20026;-69
2022/08/11 14:16:41;;;;;;;6.95;2.13;;;;;;;35.07;22.86;102016.88;4975584;28;20021;-69
2022/08/11 14:19:12;;;;;;;4.38;1.90;;;;;;;35.37;22.38;102014.91;4976922;28;20106;-70
2022/08/11 14:24:27;;;;;;;7.22;1.55;;;;;;;36.66;21.49;102002.53;4981891;28;20019;-70
2022/08/11 14:26:54;;;;;;;3.70;1.40;;;;;;;36.10;22.24;102006.16;4976121;28;20076;-70
2022/08/11 14:29:24;;;;;;;10.15;1.98;;;;;;;36.30;21.70;102000.22;4971240;28;20050;-70
2022/08/11 14:32:01;;;;;;;;;;;;;;;36.44;21.35;101999.47;4970894;28;20057;-70
2022/08/11 14:34:33;;;;;;;9.07;2.08;;;;;;;36.28;21.63;101999.69;4976713;28;19914;-71
2022/08/11 14:37:11;;;;;;;4.75;1.98;;;;;;;36.54;21.67;101993.69;4974466;28;20045;-70
2022/08/11 14:39:42;;;;;;;10.80;7.22;;;;;;;36.05;22.23;101980.84;4981972;28;20026;-71
2022/08/11 14:47:47;;;;;;;3.92;1.50;;;;;;;36.37;21.97;101989.38;4970382;28;20494;-71
2022/08/11 14:50:17;;;;;;;5.30;1.80;;;;;;;36.24;21.83;101992.97;4969127;28;20054;-71
2022/08/11 14:52:48;;;;;;;6.10;1.45;;;;;;;35.86;21.90;101984.47;4990690;28;20027;-70
2022/08/11 14:58:00;;;;;;;6.47;1.58;;;;;;;36.75;21.66;101983.72;4971032;28;20034;-70
2022/08/11 15:00:26;;;;;;;3.95;1.70;;;;;;;37.31;21.31;101985.56;4974292;28;20477;-70
2022/08/11 15:03:09;;;;;;;5.88;1.90;;;;;;;37.12;21.67;101981.97;4978534;28;20018;-71
2022/08/11 15:05:53;;;;;;;5.70;1.55;;;;;;;36.56;22.56;101980.94;4967559;28;20026;-71
2022/08/11 15:08:53;;;;;;;2.13;1.30;;;;;;;36.50;22.16;101981.31;4969227;28;20073;-71
2022/08/11 15:12:07;;;;;;;5.38;1.60;;;;;;;36.61;22.05;101977.22;4970205;28;20030;-70
2022/08/11 15:13:52;;;;;;;6.70;2.08;;;;;;;37.07;22.08;101982.91;4969079;28;20113;-70
2022/08/11 15:19:04;;;;;;;5.50;1.30;;;;;;;36.10;22.75;101972.31;4976519;28;20026;-70
2022/08/11 15:24:19;;;;;;;3.65;1.70;;;;;;;36.35;22.62;101977.59;4971046;28;20106;-71
2022/08/11 15:37:36;;;;;;;10.95;1.70;;;;;;;36.07;23.28;101961.66;4967892;28;20055;-69
2022/08/11 15:46:29;;;;;;;7.60;2.30;;;;;;;35.07;23.61;101954.94;4974647;28;20061;-70
2022/08/11 15:49:15;;;;;;;6.60;2.15;;;;;;;34.79;24.23;101954.63;4976781;28;20038;-70
2022/08/11 15:51:54;;;;;;;12.10;1.70;;;;;;;35.07;24.52;101960.56;4979778;28;20030;-70
2022/08/11 15:54:25;;;;;;;6.95;1.63;;;;;;;34.89;24.28;101958.50;4971335;28;20114;-70
2022/08/11 15:56:53;;;;;;;14.70;1.98;;;;;;;35.09;24.44;101958.31;4990532;28;20069;-70
2022/08/11 16:04:37;;;;;;;8.43;2.00;;;;;;;35.34;23.95;101955.22;4977313;28;20022;-71
2022/08/11 16:07:06;;;;;;;7.43;1.75;;;;;;;35.16;23.93;101958.81;5000367;28;20034;-70
2022/08/11 16:09:43;;;;;;;5.22;1.70;;;;;;;35.41;24.21;101959.63;5000459;28;20022;-71
2022/08/11 16:12:13;;;;;;;6.03;1.85;;;;;;;35.68;23.92;101953.44;4988286;28;20019;-71
2022/08/11 16:17:32;;;;;;;9.18;1.85;;;;;;;35.07;24.52;101954.94;4990516;28;20023;-71
2022/08/11 16:19:59;;;;;;;4.13;1.77;;;;;;;35.20;24.42;101948.59;4984845;28;20050;-69
2022/08/11 16:22:38;;;;;;;8.48;1.73;;;;;;;35.38;23.86;101943.34;4985727;28;20031;-71
2022/08/11 16:25:11;;;;;;;14.95;1.50;;;;;;;34.27;24.86;101958.97;4993573;28;20034;-71
2022/08/11 16:27:45;;;;;;;10.20;1.75;;;;;;;34.07;25.31;101947.84;4978685;28;20015;-71
2022/08/11 16:30:13;;;;;;;3.53;1.52;;;;;;;34.45;24.39;101943.41;4983628;28;20038;-69
2022/08/11 16:32:43;;;;;;;9.73;1.70;;;;;;;34.69;24.72;101949.09;4982206;28;20027;-70
2022/08/11 16:40:54;;;;;;;6.15;1.55;;;;;;;33.89;26.06;101948.47;4982325;28;20018;-69
2022/08/11 16:48:53;;;;;;;5.10;1.48;;;;;;;33.53;26.46;101948.66;4979359;28;20022;-70
2022/08/11 16:51:20;;;;;;;5.57;1.45;;;;;;;33.57;26.17;101938.50;4990388;28;20466;-70